Terminal Aerodrome Forecast
Issued by NWS

Home | Current Version | Previous Version | Text Only | Print | Product List | Glossary On
Versions: 1 2 3 4 5 6 7 8 9 10 11 12 13 14 15 16 17 18 19 20 21 22 23
000
FTUS43 KDLH 222333
TAFBRD
TAF
KBRD 222333Z 2300/2324 23013KT P6SM SCT080
     FM230200 25007KT P6SM SKC
     FM230800 27006KT P6SM FEW200
     FM231300 29009KT P6SM BKN040
     FM231400 30012G19KT P6SM BKN025
     FM231900 30016G23KT P6SM BKN035=

USA.gov is the U.S. government's official web portal to all federal, state and local government web resources and services.